sensor_id;sensor_type;location;lat;lon;timestamp;temperature;humidity
37240;DHT22;23130;48.760;9.178;2022-08-16T00:00:59;18.60;99.90
37240;DHT22;23130;48.760;9.178;2022-08-16T00:03:25;18.50;99.90
37240;DHT22;23130;48.760;9.178;2022-08-16T00:05:50;18.50;99.90
37240;DHT22;23130;48.760;9.178;2022-08-16T00:08:17;18.40;99.90
37240;DHT22;23130;48.760;9.178;2022-08-16T00:10:43;18.40;99.90
37240;DHT22;23130;48.760;9.178;2022-08-16T00:13:10;18.30;99.90
37240;DHT22;23130;48.760;9.178;2022-08-16T00:15:38;18.20;99.90
37240;DHT22;23130;48.760;9.178;2022-08-16T00:18:05;18.10;99.90
37240;DHT22;23130;48.760;9.178;2022-08-16T00:20:32;18.10;99.90
37240;DHT22;23130;48.760;9.178;2022-08-16T00:22:58;18.00;99.90
37240;DHT22;23130;48.760;9.178;2022-08-16T00:25:25;18.00;99.90
37240;DHT22;23130;48.760;9.178;2022-08-16T00:27:51;17.90;99.90
37240;DHT22;23130;48.760;9.178;2022-08-16T00:30:19;17.90;99.90
37240;DHT22;23130;48.760;9.178;2022-08-16T00:32:47;17.90;99.90
37240;DHT22;23130;48.760;9.178;2022-08-16T00:35:16;17.90;99.90
37240;DHT22;23130;48.760;9.178;2022-08-16T00:37:43;17.90;99.90
37240;DHT22;23130;48.760;9.178;2022-08-16T00:40:16;17.90;99.90
37240;DHT22;23130;48.760;9.178;2022-08-16T00:42:42;17.80;99.90
37240;DHT22;23130;48.760;9.178;2022-08-16T00:45:32;17.80;99.90
37240;DHT22;23130;48.760;9.178;2022-08-16T00:48:02;17.80;99.90
37240;DHT22;23130;48.760;9.178;2022-08-16T00:50:30;17.80;99.90
37240;DHT22;23130;48.760;9.178;2022-08-16T00:52:56;17.70;99.90
37240;DHT22;23130;48.760;9.178;2022-08-16T00:55:23;17.70;99.90
37240;DHT22;23130;48.760;9.178;2022-08-16T00:57:53;17.80;99.90
37240;DHT22;23130;48.760;9.178;2022-08-16T01:00:19;17.80;99.90
37240;DHT22;23130;48.760;9.178;2022-08-16T01:02:45;17.80;99.90
37240;DHT22;23130;48.760;9.178;2022-08-16T01:05:11;17.90;99.90
37240;DHT22;23130;48.760;9.178;2022-08-16T01:07:36;17.80;99.90
37240;DHT22;23130;48.760;9.178;2022-08-16T01:10:03;17.80;99.90
37240;DHT22;23130;48.760;9.178;2022-08-16T01:12:28;17.70;99.90
37240;DHT22;23130;48.760;9.178;2022-08-16T01:14:56;17.70;99.90
37240;DHT22;23130;48.760;9.178;2022-08-16T01:17:23;17.70;99.90
37240;DHT22;23130;48.760;9.178;2022-08-16T01:19:52;17.60;99.90
37240;DHT22;23130;48.760;9.178;2022-08-16T01:22:30;17.50;99.90
37240;DHT22;23130;48.760;9.178;2022-08-16T01:25:06;17.50;99.90
37240;DHT22;23130;48.760;9.178;2022-08-16T01:27:36;17.50;99.90
37240;DHT22;23130;48.760;9.178;2022-08-16T01:30:13;17.40;99.90
37240;DHT22;23130;48.760;9.178;2022-08-16T01:32:40;17.40;99.90
37240;DHT22;23130;48.760;9.178;2022-08-16T01:35:17;17.30;99.90
37240;DHT22;23130;48.760;9.178;2022-08-16T01:37:51;17.30;99.90
37240;DHT22;23130;48.760;9.178;2022-08-16T01:40:21;17.20;99.90
37240;DHT22;23130;48.760;9.178;2022-08-16T01:42:48;17.20;99.90
37240;DHT22;23130;48.760;9.178;2022-08-16T01:45:16;17.10;99.90
37240;DHT22;23130;48.760;9.178;2022-08-16T01:47:43;17.20;99.90
37240;DHT22;23130;48.760;9.178;2022-08-16T01:50:10;17.10;99.90
37240;DHT22;23130;48.760;9.178;2022-08-16T01:52:36;17.10;99.90
37240;DHT22;23130;48.760;9.178;2022-08-16T01:55:05;17.10;99.90
37240;DHT22;23130;48.760;9.178;2022-08-16T01:57:31;17.00;99.90
37240;DHT22;23130;48.760;9.178;2022-08-16T01:59:57;17.00;99.90
37240;DHT22;23130;48.760;9.178;2022-08-16T02:02:23;17.00;99.90
37240;DHT22;23130;48.760;9.178;2022-08-16T02:04:50;17.00;99.90
37240;DHT22;23130;48.760;9.178;2022-08-16T02:07:15;17.00;99.90
37240;DHT22;23130;48.760;9.178;2022-08-16T02:09:43;17.00;99.90
37240;DHT22;23130;48.760;9.178;2022-08-16T02:12:10;17.10;99.90
37240;DHT22;23130;48.760;9.178;2022-08-16T02:14:36;17.20;99.90
37240;DHT22;23130;48.760;9.178;2022-08-16T02:17:04;17.30;99.90
37240;DHT22;23130;48.760;9.178;2022-08-16T02:19:32;17.40;99.90
37240;DHT22;23130;48.760;9.178;2022-08-16T02:21:59;17.50;99.90
37240;DHT22;23130;48.760;9.178;2022-08-16T02:24:25;17.60;99.90
37240;DHT22;23130;48.760;9.178;2022-08-16T02:26:51;17.60;99.90
37240;DHT22;23130;48.760;9.178;2022-08-16T02:29:18;17.70;99.90
37240;DHT22;23130;48.760;9.178;2022-08-16T02:31:45;17.70;99.90
37240;DHT22;23130;48.760;9.178;2022-08-16T02:34:11;17.80;99.90
37240;DHT22;23130;48.760;9.178;2022-08-16T02:36:38;17.90;99.90
37240;DHT22;23130;48.760;9.178;2022-08-16T02:39:06;17.90;99.90
37240;DHT22;23130;48.760;9.178;2022-08-16T02:41:32;17.90;99.90
37240;DHT22;23130;48.760;9.178;2022-08-16T02:43:58;17.90;99.90
37240;DHT22;23130;48.760;9.178;2022-08-16T02:46:25;17.90;99.90
37240;DHT22;23130;48.760;9.178;2022-08-16T02:48:50;17.90;99.90
37240;DHT22;23130;48.760;9.178;2022-08-16T02:51:16;17.90;99.90
37240;DHT22;23130;48.760;9.178;2022-08-16T02:53:45;17.90;99.90
37240;DHT22;23130;48.760;9.178;2022-08-16T02:56:12;17.80;99.90
37240;DHT22;23130;48.760;9.178;2022-08-16T02:58:38;17.70;99.90
37240;DHT22;23130;48.760;9.178;2022-08-16T03:01:06;17.70;99.90
37240;DHT22;23130;48.760;9.178;2022-08-16T03:03:34;17.60;99.90
37240;DHT22;23130;48.760;9.178;2022-08-16T03:06:01;17.50;99.90
37240;DHT22;23130;48.760;9.178;2022-08-16T03:08:26;17.50;99.90
37240;DHT22;23130;48.760;9.178;2022-08-16T03:10:52;17.50;99.90
37240;DHT22;23130;48.760;9.178;2022-08-16T03:13:18;17.50;99.90
37240;DHT22;23130;48.760;9.178;2022-08-16T03:15:45;17.50;99.90
37240;DHT22;23130;48.760;9.178;2022-08-16T03:18:11;17.50;99.90
37240;DHT22;23130;48.760;9.178;2022-08-16T03:20:37;17.50;99.90
37240;DHT22;23130;48.760;9.178;2022-08-16T03:23:03;17.50;99.90
37240;DHT22;23130;48.760;9.178;2022-08-16T03:25:30;17.40;99.90
37240;DHT22;23130;48.760;9.178;2022-08-16T03:27:56;17.30;99.90
37240;DHT22;23130;48.760;9.178;2022-08-16T03:30:25;17.30;99.90
37240;DHT22;23130;48.760;9.178;2022-08-16T03:32:52;17.20;99.90
37240;DHT22;23130;48.760;9.178;2022-08-16T03:35:20;17.10;99.90
37240;DHT22;23130;48.760;9.178;2022-08-16T03:37:47;17.10;99.90
37240;DHT22;23130;48.760;9.178;2022-08-16T03:40:14;17.00;99.90
37240;DHT22;23130;48.760;9.178;2022-08-16T03:42:40;16.90;99.90
37240;DHT22;23130;48.760;9.178;2022-08-16T03:45:07;16.90;99.90
37240;DHT22;23130;48.760;9.178;2022-08-16T03:47:33;16.80;99.90
37240;DHT22;23130;48.760;9.178;2022-08-16T03:49:59;16.80;99.90
37240;DHT22;23130;48.760;9.178;2022-08-16T03:52:25;16.80;99.90
37240;DHT22;23130;48.760;9.178;2022-08-16T03:54:51;16.80;99.90
37240;DHT22;23130;48.760;9.178;2022-08-16T03:57:17;16.80;99.90
37240;DHT22;23130;48.760;9.178;2022-08-16T03:59:43;16.70;99.90
37240;DHT22;23130;48.760;9.178;2022-08-16T04:02:09;16.70;99.90
37240;DHT22;23130;48.760;9.178;2022-08-16T04:04:37;16.70;99.90
37240;DHT22;23130;48.760;9.178;2022-08-16T04:07:04;16.80;99.90
37240;DHT22;23130;48.760;9.178;2022-08-16T04:09:30;16.80;99.90
37240;DHT22;23130;48.760;9.178;2022-08-16T04:11:56;16.90;99.90
37240;DHT22;23130;48.760;9.178;2022-08-16T04:14:22;16.90;99.90
37240;DHT22;23130;48.760;9.178;2022-08-16T04:16:47;17.10;99.90
37240;DHT22;23130;48.760;9.178;2022-08-16T04:19:13;17.20;99.90
37240;DHT22;23130;48.760;9.178;2022-08-16T04:21:38;17.20;99.90
37240;DHT22;23130;48.760;9.178;2022-08-16T04:24:04;17.40;99.90
37240;DHT22;23130;48.760;9.178;2022-08-16T04:26:30;17.50;99.90
37240;DHT22;23130;48.760;9.178;2022-08-16T04:28:56;17.60;99.90
37240;DHT22;23130;48.760;9.178;2022-08-16T04:31:22;17.70;99.90
37240;DHT22;23130;48.760;9.178;2022-08-16T04:33:48;17.80;99.90
37240;DHT22;23130;48.760;9.178;2022-08-16T04:36:14;17.80;99.90
37240;DHT22;23130;48.760;9.178;2022-08-16T04:38:39;18.00;99.90
37240;DHT22;23130;48.760;9.178;2022-08-16T04:41:05;18.00;99.90
37240;DHT22;23130;48.760;9.178;2022-08-16T04:43:31;18.10;99.90
37240;DHT22;23130;48.760;9.178;2022-08-16T04:45:58;18.20;99.90
37240;DHT22;23130;48.760;9.178;2022-08-16T04:48:24;18.30;99.90
37240;DHT22;23130;48.760;9.178;2022-08-16T04:50:50;18.40;99.90
37240;DHT22;23130;48.760;9.178;2022-08-16T04:53:16;18.50;99.90
37240;DHT22;23130;48.760;9.178;2022-08-16T04:55:43;18.50;99.90
37240;DHT22;23130;48.760;9.178;2022-08-16T04:58:09;18.50;99.90
37240;DHT22;23130;48.760;9.178;2022-08-16T05:00:34;18.60;99.90
37240;DHT22;23130;48.760;9.178;2022-08-16T05:03:06;18.50;99.90
37240;DHT22;23130;48.760;9.178;2022-08-16T05:05:33;18.60;99.90
37240;DHT22;23130;48.760;9.178;2022-08-16T05:07:59;18.60;99.90
37240;DHT22;23130;48.760;9.178;2022-08-16T05:10:25;18.60;99.90
37240;DHT22;23130;48.760;9.178;2022-08-16T05:12:51;18.70;99.90
37240;DHT22;23130;48.760;9.178;2022-08-16T05:15:16;18.70;99.90
37240;DHT22;23130;48.760;9.178;2022-08-16T05:17:42;18.70;99.90
37240;DHT22;23130;48.760;9.178;2022-08-16T05:20:08;18.80;99.90
37240;DHT22;23130;48.760;9.178;2022-08-16T05:22:35;18.90;99.90
37240;DHT22;23130;48.760;9.178;2022-08-16T05:25:04;18.90;99.90
37240;DHT22;23130;48.760;9.178;2022-08-16T05:27:31;18.90;99.90
37240;DHT22;23130;48.760;9.178;2022-08-16T05:29:56;19.00;99.90
37240;DHT22;23130;48.760;9.178;2022-08-16T05:32:22;19.00;99.90
37240;DHT22;23130;48.760;9.178;2022-08-16T05:34:47;19.00;99.90
37240;DHT22;23130;48.760;9.178;2022-08-16T05:37:13;19.10;99.90
37240;DHT22;23130;48.760;9.178;2022-08-16T05:39:39;19.00;99.90
37240;DHT22;23130;48.760;9.178;2022-08-16T05:42:04;19.10;99.90
37240;DHT22;23130;48.760;9.178;2022-08-16T05:44:30;19.10;99.90
37240;DHT22;23130;48.760;9.178;2022-08-16T05:46:58;19.20;99.90
37240;DHT22;23130;48.760;9.178;2022-08-16T05:49:25;19.20;99.90
37240;DHT22;23130;48.760;9.178;2022-08-16T05:51:51;19.30;99.90
37240;DHT22;23130;48.760;9.178;2022-08-16T05:54:19;19.50;99.90
37240;DHT22;23130;48.760;9.178;2022-08-16T05:56:45;19.60;99.90
37240;DHT22;23130;48.760;9.178;2022-08-16T05:59:12;19.70;99.90
37240;DHT22;23130;48.760;9.178;2022-08-16T06:01:39;19.80;99.90
37240;DHT22;23130;48.760;9.178;2022-08-16T06:04:06;19.80;99.90
37240;DHT22;23130;48.760;9.178;2022-08-16T06:06:32;19.90;99.90
37240;DHT22;23130;48.760;9.178;2022-08-16T06:08:57;19.90;99.90
37240;DHT22;23130;48.760;9.178;2022-08-16T06:11:23;20.00;99.90
37240;DHT22;23130;48.760;9.178;2022-08-16T06:13:48;20.00;99.90
37240;DHT22;23130;48.760;9.178;2022-08-16T06:16:14;20.10;99.90
37240;DHT22;23130;48.760;9.178;2022-08-16T06:18:40;20.20;99.90
37240;DHT22;23130;48.760;9.178;2022-08-16T06:21:09;20.30;99.90
37240;DHT22;23130;48.760;9.178;2022-08-16T06:23:35;20.50;99.90
37240;DHT22;23130;48.760;9.178;2022-08-16T06:26:01;20.70;99.90
37240;DHT22;23130;48.760;9.178;2022-08-16T06:28:26;21.10;99.90
37240;DHT22;23130;48.760;9.178;2022-08-16T06:30:52;21.50;99.90
37240;DHT22;23130;48.760;9.178;2022-08-16T06:33:17;21.80;99.90
37240;DHT22;23130;48.760;9.178;2022-08-16T06:35:44;22.40;99.90
37240;DHT22;23130;48.760;9.178;2022-08-16T06:38:11;23.50;99.90
37240;DHT22;23130;48.760;9.178;2022-08-16T06:40:37;24.50;99.90
37240;DHT22;23130;48.760;9.178;2022-08-16T06:43:02;25.50;99.90
37240;DHT22;23130;48.760;9.178;2022-08-16T06:45:28;26.20;99.90
37240;DHT22;23130;48.760;9.178;2022-08-16T06:47:54;26.90;99.90
37240;DHT22;23130;48.760;9.178;2022-08-16T06:50:20;27.20;99.90
37240;DHT22;23130;48.760;9.178;2022-08-16T06:52:46;27.20;99.90
37240;DHT22;23130;48.760;9.178;2022-08-16T06:55:12;27.30;99.90
37240;DHT22;23130;48.760;9.178;2022-08-16T06:57:38;27.40;99.70
37240;DHT22;23130;48.760;9.178;2022-08-16T07:00:05;27.20;99.90
37240;DHT22;23130;48.760;9.178;2022-08-16T07:02:41;27.70;99.50
37240;DHT22;23130;48.760;9.178;2022-08-16T07:05:09;28.10;98.60
37240;DHT22;23130;48.760;9.178;2022-08-16T07:07:36;28.00;98.50
37240;DHT22;23130;48.760;9.178;2022-08-16T07:10:04;28.40;97.60
37240;DHT22;23130;48.760;9.178;2022-08-16T07:12:30;28.30;97.70
37240;DHT22;23130;48.760;9.178;2022-08-16T07:14:55;28.50;97.20
37240;DHT22;23130;48.760;9.178;2022-08-16T07:17:22;28.60;96.60
37240;DHT22;23130;48.760;9.178;2022-08-16T07:19:50;28.30;97.00
37240;DHT22;23130;48.760;9.178;2022-08-16T07:22:17;28.30;97.00
37240;DHT22;23130;48.760;9.178;2022-08-16T07:24:43;28.20;96.90
37240;DHT22;23130;48.760;9.178;2022-08-16T07:27:09;28.40;96.60
37240;DHT22;23130;48.760;9.178;2022-08-16T07:29:36;28.10;97.10
37240;DHT22;23130;48.760;9.178;2022-08-16T07:32:03;28.10;96.80
37240;DHT22;23130;48.760;9.178;2022-08-16T07:34:29;28.00;96.50
37240;DHT22;23130;48.760;9.178;2022-08-16T07:36:55;28.10;96.70
37240;DHT22;23130;48.760;9.178;2022-08-16T07:39:23;28.20;96.60
37240;DHT22;23130;48.760;9.178;2022-08-16T07:41:48;28.30;96.40
37240;DHT22;23130;48.760;9.178;2022-08-16T07:44:14;27.90;96.80
37240;DHT22;23130;48.760;9.178;2022-08-16T07:46:39;27.90;96.30
37240;DHT22;23130;48.760;9.178;2022-08-16T07:49:05;27.70;96.40
37240;DHT22;23130;48.760;9.178;2022-08-16T07:51:31;27.60;96.60
37240;DHT22;23130;48.760;9.178;2022-08-16T07:54:00;27.40;96.80
37240;DHT22;23130;48.760;9.178;2022-08-16T07:56:27;27.40;96.40
37240;DHT22;23130;48.760;9.178;2022-08-16T07:58:53;27.20;97.00
37240;DHT22;23130;48.760;9.178;2022-08-16T08:01:20;26.80;96.90
37240;DHT22;23130;48.760;9.178;2022-08-16T08:03:48;27.00;97.30
37240;DHT22;23130;48.760;9.178;2022-08-16T08:06:16;27.40;96.70
37240;DHT22;23130;48.760;9.178;2022-08-16T08:08:42;27.70;96.50
37240;DHT22;23130;48.760;9.178;2022-08-16T08:11:08;28.10;95.70
37240;DHT22;23130;48.760;9.178;2022-08-16T08:13:34;28.10;95.60
37240;DHT22;23130;48.760;9.178;2022-08-16T08:16:00;27.70;95.60
37240;DHT22;23130;48.760;9.178;2022-08-16T08:18:25;27.50;95.50
37240;DHT22;23130;48.760;9.178;2022-08-16T08:20:51;27.30;95.80
37240;DHT22;23130;48.760;9.178;2022-08-16T08:23:16;27.20;95.80
37240;DHT22;23130;48.760;9.178;2022-08-16T08:25:43;26.70;96.30
37240;DHT22;23130;48.760;9.178;2022-08-16T08:28:11;26.30;96.60
37240;DHT22;23130;48.760;9.178;2022-08-16T08:30:37;26.30;97.00
37240;DHT22;23130;48.760;9.178;2022-08-16T08:33:03;26.20;96.60
37240;DHT22;23130;48.760;9.178;2022-08-16T08:35:29;25.90;97.00
37240;DHT22;23130;48.760;9.178;2022-08-16T08:37:54;25.80;97.60
37240;DHT22;23130;48.760;9.178;2022-08-16T08:40:22;26.00;96.60
37240;DHT22;23130;48.760;9.178;2022-08-16T08:42:48;26.00;96.40
37240;DHT22;23130;48.760;9.178;2022-08-16T08:45:15;26.10;98.10
37240;DHT22;23130;48.760;9.178;2022-08-16T08:47:42;26.30;98.60
37240;DHT22;23130;48.760;9.178;2022-08-16T08:50:11;26.20;98.50
37240;DHT22;23130;48.760;9.178;2022-08-16T08:52:37;25.90;98.60
37240;DHT22;23130;48.760;9.178;2022-08-16T08:55:08;25.60;99.40
37240;DHT22;23130;48.760;9.178;2022-08-16T08:57:34;25.40;99.50
37240;DHT22;23130;48.760;9.178;2022-08-16T09:00:00;25.20;99.80
37240;DHT22;23130;48.760;9.178;2022-08-16T09:02:26;25.20;99.80
37240;DHT22;23130;48.760;9.178;2022-08-16T09:04:51;25.40;99.90
37240;DHT22;23130;48.760;9.178;2022-08-16T09:07:17;25.50;99.70
37240;DHT22;23130;48.760;9.178;2022-08-16T09:09:42;25.80;99.20
37240;DHT22;23130;48.760;9.178;2022-08-16T09:12:08;25.90;99.10
37240;DHT22;23130;48.760;9.178;2022-08-16T09:14:35;25.80;98.50
37240;DHT22;23130;48.760;9.178;2022-08-16T09:17:03;25.60;98.70
37240;DHT22;23130;48.760;9.178;2022-08-16T09:19:29;25.50;99.00
37240;DHT22;23130;48.760;9.178;2022-08-16T09:21:55;25.30;99.40
37240;DHT22;23130;48.760;9.178;2022-08-16T09:24:20;25.30;99.00
37240;DHT22;23130;48.760;9.178;2022-08-16T09:26:46;25.10;99.40
37240;DHT22;23130;48.760;9.178;2022-08-16T09:29:11;25.20;99.40
37240;DHT22;23130;48.760;9.178;2022-08-16T09:31:37;25.20;99.50
37240;DHT22;23130;48.760;9.178;2022-08-16T09:34:03;25.40;99.70
37240;DHT22;23130;48.760;9.178;2022-08-16T09:36:29;25.60;99.20
37240;DHT22;23130;48.760;9.178;2022-08-16T09:38:56;25.80;99.20
37240;DHT22;23130;48.760;9.178;2022-08-16T09:41:22;25.90;98.60
37240;DHT22;23130;48.760;9.178;2022-08-16T09:43:47;26.10;98.20
37240;DHT22;23130;48.760;9.178;2022-08-16T09:46:13;26.30;98.30
37240;DHT22;23130;48.760;9.178;2022-08-16T09:48:39;26.30;98.10
37240;DHT22;23130;48.760;9.178;2022-08-16T09:51:11;26.30;97.30
37240;DHT22;23130;48.760;9.178;2022-08-16T09:53:37;26.50;98.10
37240;DHT22;23130;48.760;9.178;2022-08-16T09:56:09;26.70;98.10
37240;DHT22;23130;48.760;9.178;2022-08-16T09:58:37;26.80;97.00
37240;DHT22;23130;48.760;9.178;2022-08-16T10:01:03;26.50;96.70
37240;DHT22;23130;48.760;9.178;2022-08-16T10:03:29;26.20;97.40
37240;DHT22;23130;48.760;9.178;2022-08-16T10:05:54;26.00;97.20
37240;DHT22;23130;48.760;9.178;2022-08-16T10:08:20;25.70;97.30
37240;DHT22;23130;48.760;9.178;2022-08-16T10:10:45;25.60;97.90
37240;DHT22;23130;48.760;9.178;2022-08-16T10:13:32;25.40;97.80
37240;DHT22;23130;48.760;9.178;2022-08-16T10:15:59;25.20;98.70
37240;DHT22;23130;48.760;9.178;2022-08-16T10:18:29;25.20;98.90
37240;DHT22;23130;48.760;9.178;2022-08-16T10:20:56;25.20;98.80
37240;DHT22;23130;48.760;9.178;2022-08-16T10:23:23;25.30;98.60
37240;DHT22;23130;48.760;9.178;2022-08-16T10:25:50;25.20;98.40
37240;DHT22;23130;48.760;9.178;2022-08-16T10:28:16;25.20;98.70
37240;DHT22;23130;48.760;9.178;2022-08-16T10:30:41;25.40;98.60
37240;DHT22;23130;48.760;9.178;2022-08-16T10:33:09;25.60;98.20
37240;DHT22;23130;48.760;9.178;2022-08-16T10:35:36;25.70;98.00
37240;DHT22;23130;48.760;9.178;2022-08-16T10:38:01;25.80;97.90
37240;DHT22;23130;48.760;9.178;2022-08-16T10:40:27;25.90;97.70
37240;DHT22;23130;48.760;9.178;2022-08-16T10:42:53;26.20;97.60
37240;DHT22;23130;48.760;9.178;2022-08-16T10:45:19;26.70;97.10
37240;DHT22;23130;48.760;9.178;2022-08-16T10:47:45;26.90;97.10
37240;DHT22;23130;48.760;9.178;2022-08-16T10:50:11;27.10;96.50
37240;DHT22;23130;48.760;9.178;2022-08-16T10:52:37;27.20;96.30
37240;DHT22;23130;48.760;9.178;2022-08-16T10:55:04;27.00;96.10
37240;DHT22;23130;48.760;9.178;2022-08-16T10:57:32;26.90;96.70
37240;DHT22;23130;48.760;9.178;2022-08-16T10:59:57;27.10;96.20
37240;DHT22;23130;48.760;9.178;2022-08-16T11:02:23;27.10;96.80
37240;DHT22;23130;48.760;9.178;2022-08-16T11:04:50;27.20;96.20
37240;DHT22;23130;48.760;9.178;2022-08-16T11:07:16;27.60;95.60
37240;DHT22;23130;48.760;9.178;2022-08-16T11:09:42;27.90;95.20
37240;DHT22;23130;48.760;9.178;2022-08-16T11:12:08;28.00;95.00
37240;DHT22;23130;48.760;9.178;2022-08-16T11:14:34;27.80;94.70
37240;DHT22;23130;48.760;9.178;2022-08-16T11:17:02;28.00;95.20
37240;DHT22;23130;48.760;9.178;2022-08-16T11:19:28;28.20;94.80
37240;DHT22;23130;48.760;9.178;2022-08-16T11:21:54;28.10;94.10
37240;DHT22;23130;48.760;9.178;2022-08-16T11:24:20;28.10;94.20
37240;DHT22;23130;48.760;9.178;2022-08-16T11:26:47;27.90;93.60
37240;DHT22;23130;48.760;9.178;2022-08-16T11:29:13;27.70;93.80
37240;DHT22;23130;48.760;9.178;2022-08-16T11:31:38;27.50;94.20
37240;DHT22;23130;48.760;9.178;2022-08-16T11:34:04;27.70;93.80
37240;DHT22;23130;48.760;9.178;2022-08-16T11:36:29;28.00;93.50
37240;DHT22;23130;48.760;9.178;2022-08-16T11:38:57;28.00;93.30
37240;DHT22;23130;48.760;9.178;2022-08-16T11:41:24;27.80;93.60
37240;DHT22;23130;48.760;9.178;2022-08-16T11:43:50;27.50;94.00
37240;DHT22;23130;48.760;9.178;2022-08-16T11:46:16;27.50;93.90
37240;DHT22;23130;48.760;9.178;2022-08-16T11:48:42;27.40;94.00
37240;DHT22;23130;48.760;9.178;2022-08-16T11:51:10;27.20;94.20
37240;DHT22;23130;48.760;9.178;2022-08-16T11:53:36;27.10;93.90
37240;DHT22;23130;48.760;9.178;2022-08-16T11:56:02;27.00;94.50
37240;DHT22;23130;48.760;9.178;2022-08-16T11:58:28;27.00;94.10
37240;DHT22;23130;48.760;9.178;2022-08-16T12:00:56;26.90;93.90
37240;DHT22;23130;48.760;9.178;2022-08-16T12:03:24;26.70;94.10
37240;DHT22;23130;48.760;9.178;2022-08-16T12:05:50;26.60;94.40
37240;DHT22;23130;48.760;9.178;2022-08-16T12:08:16;26.50;94.50
37240;DHT22;23130;48.760;9.178;2022-08-16T12:10:42;26.60;94.60
37240;DHT22;23130;48.760;9.178;2022-08-16T12:13:10;26.80;94.50
37240;DHT22;23130;48.760;9.178;2022-08-16T12:15:37;27.00;94.60
37240;DHT22;23130;48.760;9.178;2022-08-16T12:18:02;27.40;94.50
37240;DHT22;23130;48.760;9.178;2022-08-16T12:20:32;27.60;93.70
37240;DHT22;23130;48.760;9.178;2022-08-16T12:22:58;27.70;93.30
37240;DHT22;23130;48.760;9.178;2022-08-16T12:25:26;27.90;93.10
37240;DHT22;23130;48.760;9.178;2022-08-16T12:27:52;27.80;92.70
37240;DHT22;23130;48.760;9.178;2022-08-16T12:30:22;27.60;92.90
37240;DHT22;23130;48.760;9.178;2022-08-16T12:32:48;27.40;92.60
37240;DHT22;23130;48.760;9.178;2022-08-16T12:35:19;27.30;92.90
37240;DHT22;23130;48.760;9.178;2022-08-16T12:37:45;27.50;92.70
37240;DHT22;23130;48.760;9.178;2022-08-16T12:40:15;27.70;92.90
37240;DHT22;23130;48.760;9.178;2022-08-16T12:42:41;28.10;92.40
37240;DHT22;23130;48.760;9.178;2022-08-16T12:45:10;28.20;92.60
37240;DHT22;23130;48.760;9.178;2022-08-16T12:47:37;28.50;92.20
37240;DHT22;23130;48.760;9.178;2022-08-16T12:50:21;28.60;91.70
37240;DHT22;23130;48.760;9.178;2022-08-16T12:52:48;28.30;91.50
37240;DHT22;23130;48.760;9.178;2022-08-16T12:55:14;28.20;91.60
37240;DHT22;23130;48.760;9.178;2022-08-16T12:57:41;28.10;91.20
37240;DHT22;23130;48.760;9.178;2022-08-16T13:00:14;28.20;91.40
37240;DHT22;23130;48.760;9.178;2022-08-16T13:02:42;28.30;91.10
37240;DHT22;23130;48.760;9.178;2022-08-16T13:05:08;28.30;90.70
37240;DHT22;23130;48.760;9.178;2022-08-16T13:07:35;28.30;90.90
37240;DHT22;23130;48.760;9.178;2022-08-16T13:10:02;28.20;90.80
37240;DHT22;23130;48.760;9.178;2022-08-16T13:12:39;28.20;91.00
37240;DHT22;23130;48.760;9.178;2022-08-16T13:15:08;28.20;91.10
37240;DHT22;23130;48.760;9.178;2022-08-16T13:17:36;28.30;91.00
37240;DHT22;23130;48.760;9.178;2022-08-16T13:20:05;28.20;90.50
37240;DHT22;23130;48.760;9.178;2022-08-16T13:22:32;28.20;90.70
37240;DHT22;23130;48.760;9.178;2022-08-16T13:24:57;28.30;90.30
37240;DHT22;23130;48.760;9.178;2022-08-16T13:27:23;28.20;90.70
37240;DHT22;23130;48.760;9.178;2022-08-16T13:29:48;28.10;90.20
37240;DHT22;23130;48.760;9.178;2022-08-16T13:32:14;28.00;90.40
37240;DHT22;23130;48.760;9.178;2022-08-16T13:34:40;27.90;90.90
37240;DHT22;23130;48.760;9.178;2022-08-16T13:37:05;28.10;90.40
37240;DHT22;23130;48.760;9.178;2022-08-16T13:39:31;28.00;90.10
37240;DHT22;23130;48.760;9.178;2022-08-16T13:41:57;27.90;90.40
37240;DHT22;23130;48.760;9.178;2022-08-16T13:44:26;27.90;90.40
37240;DHT22;23130;48.760;9.178;2022-08-16T13:46:52;27.70;90.30
37240;DHT22;23130;48.760;9.178;2022-08-16T13:49:18;27.70;90.40
37240;DHT22;23130;48.760;9.178;2022-08-16T13:51:43;27.60;90.80
37240;DHT22;23130;48.760;9.178;2022-08-16T13:54:09;27.70;90.70
37240;DHT22;23130;48.760;9.178;2022-08-16T13:56:35;27.90;90.00
37240;DHT22;23130;48.760;9.178;2022-08-16T13:59:01;27.90;89.30
37240;DHT22;23130;48.760;9.178;2022-08-16T14:01:27;28.00;89.50
37240;DHT22;23130;48.760;9.178;2022-08-16T14:03:53;27.90;89.30
37240;DHT22;23130;48.760;9.178;2022-08-16T14:06:20;27.90;88.90
37240;DHT22;23130;48.760;9.178;2022-08-16T14:08:46;27.90;88.80
37240;DHT22;23130;48.760;9.178;2022-08-16T14:11:13;27.90;89.30
37240;DHT22;23130;48.760;9.178;2022-08-16T14:13:40;28.00;88.80
37240;DHT22;23130;48.760;9.178;2022-08-16T14:16:07;28.10;88.70
37240;DHT22;23130;48.760;9.178;2022-08-16T14:18:33;28.30;88.60
37240;DHT22;23130;48.760;9.178;2022-08-16T14:20:58;28.40;88.70
37240;DHT22;23130;48.760;9.178;2022-08-16T14:23:24;28.40;88.00
37240;DHT22;23130;48.760;9.178;2022-08-16T14:25:50;28.50;87.70
37240;DHT22;23130;48.760;9.178;2022-08-16T14:28:17;28.60;87.70
37240;DHT22;23130;48.760;9.178;2022-08-16T14:30:43;28.70;87.60
37240;DHT22;23130;48.760;9.178;2022-08-16T14:33:09;28.80;87.30
37240;DHT22;23130;48.760;9.178;2022-08-16T14:35:35;28.90;87.50
37240;DHT22;23130;48.760;9.178;2022-08-16T14:38:01;28.80;86.60
37240;DHT22;23130;48.760;9.178;2022-08-16T14:40:26;28.80;86.70
37240;DHT22;23130;48.760;9.178;2022-08-16T14:42:54;28.80;86.90
37240;DHT22;23130;48.760;9.178;2022-08-16T14:45:22;28.90;86.60
37240;DHT22;23130;48.760;9.178;2022-08-16T14:47:48;28.90;85.90
37240;DHT22;23130;48.760;9.178;2022-08-16T14:50:16;28.90;86.80
37240;DHT22;23130;48.760;9.178;2022-08-16T14:52:47;28.90;86.20
37240;DHT22;23130;48.760;9.178;2022-08-16T14:55:14;29.00;86.00
37240;DHT22;23130;48.760;9.178;2022-08-16T14:57:40;29.20;85.90
37240;DHT22;23130;48.760;9.178;2022-08-16T15:00:09;29.20;84.90
37240;DHT22;23130;48.760;9.178;2022-08-16T15:02:36;29.00;85.00
37240;DHT22;23130;48.760;9.178;2022-08-16T15:05:03;28.70;85.10
37240;DHT22;23130;48.760;9.178;2022-08-16T15:07:29;28.40;86.60
37240;DHT22;23130;48.760;9.178;2022-08-16T15:09:55;28.30;86.30
37240;DHT22;23130;48.760;9.178;2022-08-16T15:12:22;28.20;87.10
37240;DHT22;23130;48.760;9.178;2022-08-16T15:14:51;28.00;87.10
37240;DHT22;23130;48.760;9.178;2022-08-16T15:17:19;28.00;87.60
37240;DHT22;23130;48.760;9.178;2022-08-16T15:19:45;28.20;87.50
37240;DHT22;23130;48.760;9.178;2022-08-16T15:22:15;28.40;86.80
37240;DHT22;23130;48.760;9.178;2022-08-16T15:24:46;28.40;87.10
37240;DHT22;23130;48.760;9.178;2022-08-16T15:27:12;28.60;87.30